Time;durP1;ratioP1;P1;durP2;ratioP2;P2;SDS_P1;SDS_P2;PMS_P1;PMS_P2;Temp;Humidity;BMP_temperature;BMP_pressure;BME280_temperature;BME280_humidity;BME280_pressure;Samples;Min_cycle;Max_cycle;Signal;HPM_P1;HPM_P2
2022/01/06 00:01:25;;;;;;;18.58;2.70;;;5.10;99.90;;;;;;5072142;28;20054;-82
2022/01/06 00:03:54;;;;;;;18.38;3.03;;;5.10;99.90;;;;;;5055851;28;20469;-82
2022/01/06 00:06:26;;;;;;;17.65;1.92;;;5.00;99.90;;;;;;5061841;28;20469;-82
2022/01/06 00:08:54;;;;;;;12.88;2.60;;;5.10;99.90;;;;;;5035572;28;20436;-82
2022/01/06 00:11:20;;;;;;;19.30;2.92;;;5.00;99.90;;;;;;5035646;28;20049;-82
2022/01/06 00:13:52;;;;;;;13.73;2.40;;;4.90;99.90;;;;;;5035260;28;20115;-81
2022/01/06 03:55:59;;;;;;;28.17;3.97;;;4.60;99.90;;;;;;5299366;23;20066;-82
2022/01/06 03:58:39;;;;;;;26.75;4.35;;;4.60;99.90;;;;;;5268413;23;20035;31
2022/01/06 04:01:06;;;;;;;29.02;4.05;;;4.60;99.90;;;;;;4896597;29;20057;-82
2022/01/06 04:06:51;;;;;;;29.35;4.07;;;4.60;99.90;;;;;;4766060;30;20055;-81
2022/01/06 04:09:16;;;;;;;32.10;6.88;;;5.40;99.90;;;;;;4739695;30;20060;-82
2022/01/06 04:11:42;;;;;;;28.80;6.38;;;4.50;99.90;;;;;;4740461;30;20131;-81
2022/01/06 04:14:08;;;;;;;24.77;4.35;;;4.80;99.90;;;;;;4736585;30;20105;-81
2022/01/06 04:16:39;;;;;;;17.50;3.40;;;5.30;99.90;;;;;;4735719;30;20390;-82
2022/01/06 04:19:06;;;;;;;30.02;3.95;;;4.50;99.90;;;;;;4737319;30;20109;-81
2022/01/06 04:21:33;;;;;;;28.92;3.90;;;4.50;99.90;;;;;;4751037;30;20127;-81
2022/01/06 04:23:58;;;;;;;28.52;3.90;;;4.50;99.90;;;;;;4736992;30;20051;-81
2022/01/06 04:26:24;;;;;;;19.88;3.65;;;4.60;99.90;;;;;;4735389;30;20044;-81
2022/01/06 04:28:50;;;;;;;21.40;3.55;;;4.50;99.90;;;;;;4736202;30;20067;-81
2022/01/06 04:31:19;;;;;;;18.45;3.45;;;4.90;99.90;;;;;;4736479;30;20059;-82
2022/01/06 04:33:45;;;;;;;26.08;3.97;;;4.50;99.90;;;;;;4751289;30;20044;-81
2022/01/06 04:36:10;;;;;;;23.77;3.17;;;4.50;99.90;;;;;;4736081;30;20058;-82
2022/01/06 04:38:36;;;;;;;24.20;3.67;;;4.50;99.90;;;;;;4736566;30;20048;-82
2022/01/06 04:41:06;;;;;;;29.13;3.72;;;5.30;99.90;;;;;;4736361;30;20090;-82
2022/01/06 04:43:32;;;;;;;25.30;3.63;;;4.50;99.90;;;;;;4735438;30;20127;-82
2022/01/06 04:45:59;;;;;;;25.20;3.75;;;4.50;99.90;;;;;;4736121;30;20286;-82
2022/01/06 04:48:24;;;;;;;28.65;3.65;;;4.90;99.90;;;;;;4736250;30;20056;-82
2022/01/06 04:50:50;;;;;;;29.60;3.47;;;5.00;99.90;;;;;;4736198;30;20054;-82
2022/01/06 04:53:16;;;;;;;25.02;4.15;;;5.00;99.90;;;;;;4736184;30;20052;-82
2022/01/06 04:55:42;;;;;;;33.78;4.10;;;4.50;99.90;;;;;;4735951;30;20062;-82
2022/01/06 04:58:08;;;;;;;22.50;3.63;;;4.40;99.90;;;;;;4735842;30;20048;-82
2022/01/06 05:00:34;;;;;;;30.73;4.45;;;4.90;99.90;;;;;;4737154;30;20104;-82
2022/01/06 05:02:59;;;;;;;27.35;3.90;;;4.40;99.90;;;;;;4739505;30;20044;-82
2022/01/06 05:05:25;;;;;;;25.42;3.78;;;4.40;99.90;;;;;;4739313;30;20067;-82
2022/01/06 05:07:51;;;;;;;29.50;4.13;;;4.30;99.90;;;;;;4739573;30;20056;-82
2022/01/06 05:10:16;;;;;;;23.83;3.97;;;4.30;99.90;;;;;;4724988;30;20055;-82
2022/01/06 05:12:44;;;;;;;29.30;3.80;;;4.20;99.90;;;;;;4739656;30;20052;-82
2022/01/06 05:15:12;;;;;;;23.92;3.40;;;4.20;99.90;;;;;;4723929;30;20052;-83
2022/01/06 05:17:42;;;;;;;23.55;3.78;;;4.80;99.90;;;;;;4739250;30;20059;-82
2022/01/06 05:20:08;;;;;;;28.95;4.47;;;4.10;99.90;;;;;;4739458;30;20063;-83
2022/01/06 05:22:41;;;;;;;28.00;4.45;;;4.10;99.90;;;;;;4739456;30;20462;-82
2022/01/06 05:25:07;;;;;;;26.15;4.07;;;4.00;99.90;;;;;;4739507;30;20055;-83
2022/01/06 05:27:32;;;;;;;30.63;4.32;;;4.00;99.90;;;;;;4739378;30;20056;-83
2022/01/06 05:29:58;;;;;;;34.78;5.18;;;4.40;99.90;;;;;;4739352;30;20426;-82
2022/01/06 05:32:24;;;;;;;33.83;3.92;;;3.90;99.90;;;;;;4738160;30;20173;-82
2022/01/06 05:34:49;;;;;;;35.95;4.70;;;3.40;99.90;;;;;;4724362;30;20055;-82
2022/01/06 05:37:15;;;;;;;26.17;4.50;;;3.80;99.90;;;;;;4739751;30;20044;-82
2022/01/06 05:39:41;;;;;;;19.27;4.03;;;3.70;99.90;;;;;;4739007;30;20113;-83
2022/01/06 05:42:07;;;;;;;26.98;4.63;;;3.70;99.90;;;;;;4739290;30;20138;-82
2022/01/06 05:44:34;;;;;;;34.70;4.60;;;3.60;99.90;;;;;;4753862;30;20052;-82
2022/01/06 05:47:00;;;;;;;28.17;4.25;;;3.60;99.90;;;;;;4739271;30;20044;-82
2022/01/06 05:49:26;;;;;;;28.92;4.03;;;3.60;99.90;;;;;;4738742;30;20041;-82
2022/01/06 05:51:52;;;;;;;28.98;4.35;;;3.50;99.90;;;;;;4739082;30;20464;-83
2022/01/06 05:54:17;;;;;;;40.03;4.28;;;3.50;99.90;;;;;;4738837;30;20048;-82
2022/01/06 05:56:43;;;;;;;35.65;4.45;;;4.20;99.90;;;;;;4738752;30;20048;-82
2022/01/06 05:59:09;;;;;;;35.60;4.53;;;3.40;99.90;;;;;;4739035;30;20152;-82
2022/01/06 06:01:35;;;;;;;24.15;4.28;;;3.40;99.90;;;;;;4754840;30;20056;-83
2022/01/06 06:04:00;;;;;;;27.40;3.67;;;3.40;99.90;;;;;;4738031;30;20040;-82
2022/01/06 06:06:26;;;;;;;24.38;4.15;;;3.40;99.90;;;;;;4723669;30;20066;-82
2022/01/06 06:08:52;;;;;;;25.55;4.43;;;3.40;99.90;;;;;;4738713;30;20063;-82
2022/01/06 06:11:17;;;;;;;28.25;3.78;;;3.40;99.90;;;;;;4724197;30;20056;-82
2022/01/06 06:13:43;;;;;;;28.02;4.30;;;3.40;99.90;;;;;;4724223;30;20496;-82
2022/01/06 06:16:09;;;;;;;27.00;4.32;;;3.50;99.90;;;;;;4724023;30;20131;-82
2022/01/06 06:18:34;;;;;;;27.55;4.47;;;3.40;99.90;;;;;;4738795;30;20526;-82
2022/01/06 06:21:00;;;;;;;19.27;3.42;;;3.40;99.90;;;;;;4724406;30;20094;-82
2022/01/06 06:23:26;;;;;;;26.60;4.32;;;3.40;99.90;;;;;;4737559;30;20123;-83
2022/01/06 06:25:52;;;;;;;21.23;3.83;;;3.50;99.90;;;;;;4738216;30;20135;-82
2022/01/06 06:28:17;;;;;;;23.73;3.75;;;4.30;99.90;;;;;;4724063;30;20048;-82
2022/01/06 06:30:43;;;;;;;26.35;4.03;;;4.10;99.90;;;;;;4738519;30;20079;-83
2022/01/06 06:33:09;;;;;;;25.40;3.50;;;3.40;99.90;;;;;;4753161;30;20048;-83
2022/01/06 06:35:35;;;;;;;26.05;4.13;;;3.40;99.90;;;;;;4723969;30;20135;-83
2022/01/06 06:38:00;;;;;;;23.92;4.32;;;3.40;99.90;;;;;;4732365;30;20047;-83
2022/01/06 06:40:26;;;;;;;20.95;3.50;;;3.30;99.90;;;;;;4754269;30;20098;-83
2022/01/06 06:42:52;;;;;;;30.48;4.50;;;3.30;99.90;;;;;;4723736;30;20548;-83
2022/01/06 06:45:21;;;;;;;24.63;4.00;;;3.30;99.90;;;;;;4738264;30;20515;-83
2022/01/06 06:47:47;;;;;;;25.85;3.97;;;3.30;99.90;;;;;;4738132;30;20141;-83
2022/01/06 06:50:16;;;;;;;27.38;4.28;;;3.40;99.90;;;;;;4738075;30;20087;-83
2022/01/06 06:52:43;;;;;;;21.10;3.78;;;3.30;99.90;;;;;;4737111;30;20065;-83
2022/01/06 06:55:13;;;;;;;21.63;3.58;;;3.20;99.90;;;;;;4738266;30;20044;-83
2022/01/06 06:57:39;;;;;;;27.75;3.85;;;3.20;99.90;;;;;;4752805;30;20044;-83
2022/01/06 07:00:08;;;;;;;28.73;3.67;;;4.10;99.90;;;;;;4737945;30;20113;-83
2022/01/06 07:02:33;;;;;;;27.65;3.78;;;3.20;99.90;;;;;;4737867;30;20052;-83
2022/01/06 07:04:59;;;;;;;28.80;4.60;;;3.40;99.90;;;;;;4723188;30;20093;-83
2022/01/06 07:07:26;;;;;;;28.60;4.47;;;3.20;99.90;;;;;;4737628;30;20086;-83
2022/01/06 07:09:51;;;;;;;27.35;4.35;;;3.20;99.90;;;;;;4736679;30;20485;-82
2022/01/06 07:12:17;;;;;;;29.65;4.60;;;3.20;99.90;;;;;;4737805;30;20110;-83
2022/01/06 07:14:43;;;;;;;27.55;4.32;;;3.30;99.90;;;;;;4752379;30;20052;-82
2022/01/06 07:17:09;;;;;;;17.58;3.83;;;3.10;99.90;;;;;;4737830;30;20135;-83
2022/01/06 07:19:35;;;;;;;31.45;4.43;;;3.20;99.90;;;;;;4723058;30;20044;-83
2022/01/06 07:22:01;;;;;;;21.83;3.53;;;3.20;99.90;;;;;;4736874;30;20048;-83
2022/01/06 07:24:26;;;;;;;29.20;4.20;;;3.20;99.90;;;;;;4737526;30;20048;-83
2022/01/06 07:26:52;;;;;;;30.17;3.78;;;3.20;99.90;;;;;;4736592;30;20515;-83
2022/01/06 07:29:18;;;;;;;24.30;3.90;;;3.30;99.90;;;;;;4737368;30;20055;-82
2022/01/06 07:31:43;;;;;;;28.45;4.40;;;3.30;99.90;;;;;;4722738;30;20581;-83
2022/01/06 07:34:09;;;;;;;23.25;3.45;;;3.70;99.90;;;;;;4722518;30;20059;-82
2022/01/06 07:36:35;;;;;;;32.30;4.07;;;3.20;99.90;;;;;;4722603;30;20048;-83
2022/01/06 07:39:02;;;;;;;27.17;3.90;;;3.20;99.90;;;;;;4736994;30;20045;-82
2022/01/06 07:41:31;;;;;;;32.58;3.45;;;3.50;99.90;;;;;;4735981;30;20081;-82
2022/01/06 07:43:57;;;;;;;27.25;4.13;;;3.60;99.90;;;;;;4737128;30;20048;-82
2022/01/06 07:46:22;;;;;;;22.63;3.83;;;3.20;99.90;;;;;;4722424;30;20408;-82
2022/01/06 07:48:56;;;;;;;33.30;4.45;;;3.20;99.90;;;;;;4736803;30;20411;-82
2022/01/06 07:51:27;;;;;;;27.73;3.95;;;3.20;99.90;;;;;;4737568;30;20069;-82
2022/01/06 07:53:54;;;;;;;26.02;3.42;;;3.20;99.90;;;;;;4736939;30;20166;-82
2022/01/06 07:56:20;;;;;;;24.05;3.75;;;3.20;99.90;;;;;;4736858;30;20052;-82
2022/01/06 07:58:48;;;;;;;31.40;4.30;;;3.20;99.90;;;;;;4735746;30;20087;-82
2022/01/06 08:01:15;;;;;;;24.73;3.75;;;3.20;99.90;;;;;;4751471;30;20055;-82
2022/01/06 08:03:42;;;;;;;23.98;4.05;;;3.20;99.90;;;;;;4736902;30;20044;-82
2022/01/06 08:06:08;;;;;;;24.02;4.07;;;3.20;99.90;;;;;;4736411;30;20413;-82
2022/01/06 08:08:34;;;;;;;26.15;4.15;;;3.20;99.90;;;;;;4722363;30;20062;-82
2022/01/06 08:11:00;;;;;;;29.42;4.25;;;3.30;99.90;;;;;;4736530;30;20052;-83
2022/01/06 08:13:25;;;;;;;29.73;4.32;;;3.20;99.90;;;;;;4735287;30;20048;-82
2022/01/06 08:15:51;;;;;;;29.92;3.83;;;3.30;99.90;;;;;;4707308;30;20469;-83
2022/01/06 08:18:17;;;;;;;25.05;4.18;;;4.00;99.90;;;;;;4721018;30;20056;-83
2022/01/06 08:20:45;;;;;;;28.40;3.58;;;3.30;99.90;;;;;;4736641;30;20044;-83
2022/01/06 08:23:11;;;;;;;32.92;4.32;;;4.10;99.90;;;;;;4736851;30;20048;-82
2022/01/06 08:25:40;;;;;;;34.10;4.18;;;3.30;99.90;;;;;;4736652;30;20048;-82
2022/01/06 08:28:07;;;;;;;25.73;4.60;;;3.40;99.90;;;;;;4736793;30;20129;-82
2022/01/06 08:30:34;;;;;;;29.10;4.68;;;3.40;99.90;;;;;;4736656;30;20055;-82
2022/01/06 08:33:00;;;;;;;29.73;4.60;;;3.50;99.90;;;;;;4735145;30;20079;-82
2022/01/06 08:35:27;;;;;;;30.73;5.20;;;3.80;99.90;;;;;;4721909;30;20056;-82
2022/01/06 08:37:53;;;;;;;32.53;4.68;;;3.60;99.90;;;;;;4736245;30;20509;-82
2022/01/06 08:40:19;;;;;;;26.52;4.80;;;3.80;99.90;;;;;;4735308;30;20566;-82
2022/01/06 08:42:46;;;;;;;28.98;4.43;;;3.90;99.90;;;;;;4736323;30;20044;-82
2022/01/06 08:45:12;;;;;;;31.40;4.55;;;3.60;99.90;;;;;;4736624;30;20126;-82
2022/01/06 08:47:38;;;;;;;24.92;4.47;;;3.60;99.90;;;;;;4751110;30;20040;-82
2022/01/06 08:50:04;;;;;;;31.25;4.38;;;3.60;99.90;;;;;;4722059;30;20505;-82
2022/01/06 08:52:30;;;;;;;32.40;4.72;;;3.60;99.90;;;;;;4736220;30;20051;-81
2022/01/06 08:54:56;;;;;;;27.83;4.55;;;3.60;99.90;;;;;;4721808;30;20131;-82
2022/01/06 08:57:22;;;;;;;26.40;5.00;;;3.60;99.90;;;;;;4720709;30;20052;-81
2022/01/06 08:59:48;;;;;;;33.88;5.00;;;3.60;99.90;;;;;;4736176;30;20454;-81
2022/01/06 09:02:14;;;;;;;28.40;4.57;;;3.60;99.90;;;;;;4736345;30;20040;-77
2022/01/06 09:04:40;;;;;;;35.78;5.15;;;3.40;99.90;;;;;;4747019;30;20124;-77
2022/01/06 09:07:05;;;;;;;19.60;4.22;;;3.50;99.90;;;;;;4736064;30;20060;-77
2022/01/06 09:09:32;;;;;;;32.75;4.43;;;3.50;99.90;;;;;;4721697;30;20082;-78
2022/01/06 09:11:58;;;;;;;19.23;4.78;;;3.50;99.90;;;;;;4721784;30;20433;-78
2022/01/06 09:14:24;;;;;;;32.25;5.18;;;4.20;99.90;;;;;;4720692;30;20055;-78
2022/01/06 09:16:51;;;;;;;33.58;4.90;;;4.30;99.90;;;;;;4736016;30;20193;-78
2022/01/06 09:19:17;;;;;;;32.60;4.90;;;3.50;99.90;;;;;;4735966;30;20405;-78
2022/01/06 09:21:43;;;;;;;36.15;5.20;;;3.60;99.90;;;;;;4736311;30;20044;-78
2022/01/06 09:24:09;;;;;;;25.73;4.97;;;3.60;99.90;;;;;;4750485;30;20051;-78
2022/01/06 09:26:39;;;;;;;27.92;4.78;;;3.60;99.90;;;;;;4735792;30;20044;-78
2022/01/06 09:29:08;;;;;;;29.30;5.03;;;3.60;99.90;;;;;;4734883;30;20055;-79
2022/01/06 09:31:36;;;;;;;32.70;4.82;;;3.60;99.90;;;;;;4736247;30;20048;-79
2022/01/06 09:34:03;;;;;;;42.78;5.32;;;4.60;99.90;;;;;;4736054;30;20106;-78
2022/01/06 09:36:32;;;;;;;34.35;4.88;;;3.80;99.90;;;;;;4735979;30;20048;-79
2022/01/06 09:38:59;;;;;;;32.00;4.88;;;3.70;99.90;;;;;;4721158;30;20127;-79
2022/01/06 09:41:26;;;;;;;26.75;5.03;;;3.80;99.90;;;;;;4735829;30;20048;-79
2022/01/06 09:43:56;;;;;;;26.75;4.95;;;3.80;99.90;;;;;;4735555;30;20487;-78
2022/01/06 09:46:26;;;;;;;26.45;4.90;;;3.80;99.90;;;;;;4736336;30;20079;-79
2022/01/06 09:48:57;;;;;;;28.70;5.35;;;3.90;99.90;;;;;;4724781;30;20084;-79
2022/01/06 09:51:23;;;;;;;30.05;6.68;;;3.80;99.90;;;;;;4724803;30;20048;-79
2022/01/06 09:53:52;;;;;;;35.50;7.25;;;4.00;99.90;;;;;;4724473;30;20052;-79
2022/01/06 09:56:19;;;;;;;25.35;5.10;;;3.90;99.90;;;;;;4738843;30;20052;-79
2022/01/06 09:58:45;;;;;;;33.80;4.85;;;3.90;99.90;;;;;;4724624;30;20054;-79
2022/01/06 10:01:11;;;;;;;23.27;4.60;;;4.50;99.90;;;;;;4753755;30;20109;-79
2022/01/06 10:03:41;;;;;;;19.88;4.43;;;4.10;99.90;;;;;;4767394;30;20498;-79
2022/01/06 10:06:19;;;;;;;27.83;4.63;;;4.10;99.90;;;;;;4738578;30;20060;-79
2022/01/06 10:08:59;;;;;;;20.75;4.55;;;4.10;99.90;;;;;;4738720;30;20056;-79
2022/01/06 10:11:35;;;;;;;25.67;4.63;;;4.10;99.90;;;;;;4738955;30;20048;-79
2022/01/06 10:14:10;;;;;;;26.45;5.03;;;4.20;99.90;;;;;;4724578;30;20416;-79
2022/01/06 10:16:39;;;;;;;28.00;4.75;;;4.20;99.90;;;;;;4738523;30;20062;-79
2022/01/06 10:19:09;;;;;;;20.90;3.60;;;4.20;99.90;;;;;;4738628;30;20062;-79
2022/01/06 10:21:44;;;;;;;24.63;4.60;;;3.90;99.90;;;;;;4723347;30;20082;-79
2022/01/06 10:24:15;;;;;;;25.88;4.30;;;4.30;99.90;;;;;;4738753;30;20401;-79
2022/01/06 10:26:57;;;;;;;28.10;4.20;;;4.30;99.90;;;;;;4738755;30;20036;-79
2022/01/06 10:29:30;;;;;;;28.63;4.47;;;4.30;99.90;;;;;;4738667;30;20055;-79
2022/01/06 10:32:11;;;;;;;32.67;4.80;;;4.40;99.90;;;;;;4737839;30;20071;-78
2022/01/06 10:34:39;;;;;;;26.95;4.07;;;4.40;99.90;;;;;;4741323;30;20058;-79
2022/01/06 10:37:16;;;;;;;31.10;4.95;;;4.40;99.90;;;;;;4724405;30;20092;-78
2022/01/06 10:39:46;;;;;;;26.98;4.50;;;4.40;99.90;;;;;;4751567;30;20048;-78
2022/01/06 10:42:13;;;;;;;23.08;4.32;;;4.50;99.90;;;;;;4752935;30;20040;-79
2022/01/06 10:45:09;;;;;;;21.50;4.70;;;4.50;99.90;;;;;;4745543;30;20043;-76
2022/01/06 10:47:47;;;;;;;22.38;4.53;;;4.60;99.90;;;;;;4740195;30;20049;-76
2022/01/06 10:50:27;;;;;;;22.20;3.97;;;4.60;99.90;;;;;;4739166;30;20094;-78
2022/01/06 10:53:03;;;;;;;19.13;3.83;;;4.70;99.90;;;;;;4733953;30;20497;-78
2022/01/06 10:55:32;;;;;;;22.00;4.45;;;4.70;99.90;;;;;;4739988;30;20041;-80
2022/01/06 10:58:05;;;;;;;23.20;4.60;;;5.00;99.90;;;;;;4732408;30;20076;-81
2022/01/06 11:00:39;;;;;;;21.83;4.60;;;4.70;99.90;;;;;;4767327;30;20079;-75
2022/01/06 11:03:21;;;;;;;24.65;5.32;;;4.80;99.90;;;;;;4752759;30;20056;-78
2022/01/06 11:05:52;;;;;;;22.27;4.72;;;4.80;99.90;;;;;;4747985;30;20119;-82
2022/01/06 11:08:30;;;;;;;27.08;4.70;;;4.90;99.90;;;;;;4735803;30;20044;-81
2022/01/06 11:13:49;;;;;;;18.60;4.32;;;4.80;99.90;;;;;;4752771;30;20055;-82
2022/01/06 11:16:19;;;;;;;21.10;4.10;;;4.80;99.90;;;;;;4737728;30;20044;-81
2022/01/06 11:18:50;;;;;;;28.40;4.22;;;4.90;99.90;;;;;;4737536;30;20063;-81
2022/01/06 11:21:44;;;;;;;27.13;3.78;;;4.50;99.90;;;;;;4737796;30;20056;-81
2022/01/06 11:24:23;;;;;;;30.50;4.47;;;4.90;99.90;;;;;;4735820;30;20057;-81
2022/01/06 11:27:04;;;;;;;23.30;4.32;;;4.90;99.90;;;;;;4736852;30;20485;-82
2022/01/06 11:29:42;;;;;;;29.77;4.78;;;4.90;99.90;;;;;;4737571;30;20043;-82
2022/01/06 11:32:22;;;;;;;33.95;5.30;;;5.00;99.90;;;;;;4751578;30;20518;-82
2022/01/06 11:35:11;;;;;;;26.02;5.00;;;5.00;99.90;;;;;;4737417;30;20054;-82
2022/01/06 11:37:43;;;;;;;25.48;4.82;;;5.00;99.90;;;;;;4752356;30;20140;-82
2022/01/06 11:40:11;;;;;;;32.20;5.93;;;5.50;99.90;;;;;;4737427;30;20131;-82
2022/01/06 11:42:37;;;;;;;30.77;5.28;;;5.00;99.90;;;;;;4737188;30;20048;-82
2022/01/06 11:45:05;;;;;;;30.95;5.00;;;5.10;99.90;;;;;;4736193;30;20110;-81
2022/01/06 11:47:39;;;;;;;32.80;5.32;;;5.10;99.90;;;;;;4737396;30;20045;-81
2022/01/06 11:50:18;;;;;;;26.55;4.90;;;5.30;99.90;;;;;;4722460;30;20136;-81
2022/01/06 11:52:58;;;;;;;25.15;4.75;;;5.20;99.90;;;;;;4722534;30;20047;-81
2022/01/06 11:55:30;;;;;;;40.47;5.55;;;5.10;99.90;;;;;;4751820;30;20055;-81
2022/01/06 11:58:22;;;;;;;29.00;6.53;;;5.80;99.90;;;;;;4736926;30;20404;-81
2022/01/06 12:01:12;;;;;;;30.48;5.30;;;5.20;99.90;;;;;;4737726;30;20489;-81
2022/01/06 12:03:40;;;;;;;27.30;5.22;;;5.20;99.90;;;;;;4736950;30;20048;-81
2022/01/06 12:06:21;;;;;;;31.88;5.20;;;5.30;99.90;;;;;;4751236;30;20109;-81
2022/01/06 12:08:47;;;;;;;37.42;4.95;;;5.90;99.90;;;;;;4736685;30;20519;-81
2022/01/06 12:11:33;;;;;;;27.80;4.43;;;5.20;99.90;;;;;;4722526;30;20048;-81
2022/01/06 12:14:00;;;;;;;22.10;4.65;;;5.40;99.90;;;;;;4751698;30;20052;-82
2022/01/06 12:16:35;;;;;;;31.70;4.72;;;5.50;99.90;;;;;;4736966;30;20086;-81
2022/01/06 12:19:12;;;;;;;;;;;5.70;99.90;;;;;;4736035;30;20052;-82
2022/01/06 12:21:40;;;;;;;23.27;4.18;;;5.80;99.90;;;;;;4736549;30;19979;-82
2022/01/06 12:24:09;;;;;;;23.15;3.72;;;6.00;99.90;;;;;;4722166;30;20052;-82
2022/01/06 12:26:36;;;;;;;27.75;4.25;;;5.80;99.90;;;;;;4736486;30;20112;-82
2022/01/06 12:29:04;;;;;;;29.25;4.45;;;5.80;99.90;;;;;;4736745;30;20140;-82
2022/01/06 12:31:33;;;;;;;25.83;3.90;;;5.70;99.90;;;;;;4736460;30;20512;-82
2022/01/06 12:34:01;;;;;;;30.35;4.05;;;5.70;99.90;;;;;;4735447;30;20501;-82
2022/01/06 12:36:32;;;;;;;25.48;3.90;;;5.70;99.90;;;;;;4721693;30;20056;-82
2022/01/06 12:39:05;;;;;;;23.90;3.72;;;5.70;99.90;;;;;;4736054;30;20059;-82
2022/01/06 12:41:32;;;;;;;23.58;4.00;;;5.70;99.90;;;;;;4736407;30;20501;-82
2022/01/06 12:43:59;;;;;;;23.02;3.25;;;5.70;99.90;;;;;;4721997;30;20502;-82
2022/01/06 12:46:39;;;;;;;29.63;3.67;;;5.70;99.90;;;;;;4736622;30;20051;-82
2022/01/06 12:49:10;;;;;;;19.02;3.55;;;5.70;99.90;;;;;;4722123;30;20409;-82
2022/01/06 12:51:45;;;;;;;23.92;3.83;;;5.70;99.90;;;;;;4735603;30;20404;-82
2022/01/06 12:54:13;;;;;;;33.25;4.28;;;5.70;99.90;;;;;;4736563;30;20530;-82
2022/01/06 12:56:41;;;;;;;26.45;4.43;;;5.70;99.90;;;;;;4736177;30;20052;-82
2022/01/06 12:59:14;;;;;;;29.25;5.15;;;5.80;99.90;;;;;;4736205;30;20164;-82
2022/01/06 13:01:42;;;;;;;28.55;4.53;;;5.70;99.90;;;;;;4739685;30;20051;-82
2022/01/06 13:04:11;;;;;;;28.65;4.15;;;5.70;99.90;;;;;;4736284;30;20048;-82
2022/01/06 13:06:39;;;;;;;27.63;4.22;;;5.80;99.90;;;;;;4736120;30;20052;-83
2022/01/06 13:09:19;;;;;;;21.95;3.58;;;5.80;99.90;;;;;;4735403;30;20102;-82
2022/01/06 13:11:50;;;;;;;24.25;3.70;;;5.80;99.90;;;;;;4736197;30;20060;-82
2022/01/06 13:14:37;;;;;;;19.90;3.75;;;5.80;99.90;;;;;;4736098;30;20493;-82
2022/01/06 13:17:10;;;;;;;22.40;2.95;;;5.80;99.90;;;;;;4751897;30;20055;-82
2022/01/06 13:19:42;;;;;;;19.63;3.75;;;5.80;99.90;;;;;;4735864;30;20056;-82
2022/01/06 13:22:14;;;;;;;20.67;3.10;;;5.90;99.90;;;;;;4724919;30;20048;-82
2022/01/06 13:24:40;;;;;;;24.00;3.30;;;6.10;99.90;;;;;;4740169;30;20083;-82
2022/01/06 13:27:09;;;;;;;24.48;3.67;;;6.00;99.90;;;;;;4738910;30;20500;-82
2022/01/06 13:29:52;;;;;;;24.92;3.75;;;6.00;99.90;;;;;;4743634;30;20052;-82
2022/01/06 13:32:25;;;;;;;28.42;4.03;;;7.00;99.90;;;;;;4754045;30;20055;-82
2022/01/06 13:35:10;;;;;;;18.40;3.38;;;6.20;99.90;;;;;;4753847;30;20098;-82
2022/01/06 13:37:38;;;;;;;26.25;3.97;;;6.00;99.90;;;;;;4724874;30;20052;-83
2022/01/06 13:40:10;;;;;;;20.00;3.80;;;6.00;99.90;;;;;;4738970;30;20054;-82
2022/01/06 13:42:39;;;;;;;18.38;3.35;;;6.00;99.90;;;;;;4753920;30;20535;-82
2022/01/06 13:45:13;;;;;;;19.73;3.58;;;6.00;99.90;;;;;;4738048;30;20127;-82
2022/01/06 13:48:00;;;;;;;24.35;3.65;;;6.00;99.90;;;;;;4739457;30;20044;-82
2022/01/06 13:53:27;;;;;;;19.05;3.17;;;5.90;99.90;;;;;;4739241;30;20056;-82
2022/01/06 13:55:59;;;;;;;22.35;2.95;;;6.00;99.90;;;;;;4754767;30;20040;-82
2022/01/06 13:58:29;;;;;;;19.15;3.00;;;6.10;99.90;;;;;;4738746;30;20056;-82
2022/01/06 14:00:55;;;;;;;16.58;3.10;;;6.20;99.90;;;;;;4721888;30;20052;-82
2022/01/06 14:03:21;;;;;;;22.77;3.88;;;6.20;99.90;;;;;;4738532;30;20057;-82
2022/01/06 14:05:46;;;;;;;24.75;4.80;;;6.20;99.90;;;;;;4738289;30;20413;-82
2022/01/06 14:08:12;;;;;;;14.80;2.97;;;6.10;99.90;;;;;;4723907;30;20056;-82
2022/01/06 14:10:40;;;;;;;14.55;3.17;;;6.00;99.90;;;;;;4724223;30;20406;-82
2022/01/06 14:13:06;;;;;;;20.58;2.97;;;6.00;99.90;;;;;;4724738;30;20439;-82
2022/01/06 14:15:32;;;;;;;25.05;3.70;;;6.10;99.90;;;;;;4738774;30;20052;-82
2022/01/06 14:17:58;;;;;;;16.95;3.00;;;6.00;99.90;;;;;;4737316;30;20050;-82
2022/01/06 14:20:24;;;;;;;17.83;2.80;;;5.90;99.90;;;;;;4738568;30;20143;-82
2022/01/06 14:22:52;;;;;;;22.52;3.47;;;5.90;99.90;;;;;;4724096;30;20460;-82
2022/01/06 14:25:18;;;;;;;20.83;3.35;;;5.90;99.90;;;;;;4724208;30;20044;-82
2022/01/06 14:27:44;;;;;;;13.20;2.45;;;5.90;99.90;;;;;;4738566;30;20152;-82
2022/01/06 14:30:10;;;;;;;24.17;4.40;;;5.90;99.90;;;;;;4721820;30;20478;-82
2022/01/06 14:32:37;;;;;;;20.45;3.00;;;5.90;99.90;;;;;;4738181;30;20127;-82
2022/01/06 14:35:03;;;;;;;22.05;3.33;;;5.80;99.90;;;;;;4738640;30;20056;-82
2022/01/06 14:37:29;;;;;;;16.85;2.58;;;5.80;99.90;;;;;;4738608;30;20210;-82
2022/01/06 14:39:55;;;;;;;22.48;2.50;;;5.80;99.90;;;;;;4738030;30;20521;-82
2022/01/06 14:42:21;;;;;;;12.02;2.55;;;5.80;99.90;;;;;;4723681;30;20049;-83
2022/01/06 14:44:46;;;;;;;19.83;2.92;;;5.70;99.90;;;;;;4738487;30;20083;-82
2022/01/06 14:47:12;;;;;;;17.17;3.00;;;5.70;99.90;;;;;;4753794;30;20520;-82
2022/01/06 14:49:38;;;;;;;20.63;3.22;;;5.70;99.90;;;;;;4737811;30;20485;-82
2022/01/06 14:52:04;;;;;;;29.30;3.75;;;5.70;99.90;;;;;;4723668;30;20055;-83
2022/01/06 14:54:30;;;;;;;17.23;3.35;;;5.60;99.90;;;;;;4738046;30;20052;-83
2022/01/06 14:57:04;;;;;;;18.15;4.75;;;5.70;99.90;;;;;;4737966;30;20060;-83
2022/01/06 14:59:30;;;;;;;19.88;5.00;;;5.60;99.90;;;;;;4752767;30;20048;-82
2022/01/06 15:01:57;;;;;;;17.67;3.83;;;5.50;99.90;;;;;;4738173;30;20052;-82
2022/01/06 15:04:26;;;;;;;18.85;3.45;;;5.50;99.90;;;;;;4738088;30;20135;-82
2022/01/06 15:06:52;;;;;;;15.60;2.75;;;5.50;99.90;;;;;;4735673;30;20060;-82
2022/01/06 15:09:18;;;;;;;18.80;2.95;;;5.50;99.90;;;;;;4737837;30;20055;-82
2022/01/06 15:11:47;;;;;;;12.10;2.45;;;5.50;99.90;;;;;;4737737;30;20495;-82
2022/01/06 15:14:17;;;;;;;17.48;2.60;;;5.40;99.90;;;;;;4723883;30;20109;-83
2022/01/06 15:16:44;;;;;;;19.08;2.80;;;5.80;99.90;;;;;;4723659;30;20070;-83
2022/01/06 15:19:09;;;;;;;14.93;2.35;;;5.40;99.90;;;;;;4722814;30;20489;-82
2022/01/06 15:21:37;;;;;;;19.70;2.97;;;5.90;99.90;;;;;;4723209;30;20051;-82
2022/01/06 15:24:07;;;;;;;16.48;2.90;;;5.40;99.90;;;;;;4722265;30;20052;-82
2022/01/06 15:26:34;;;;;;;13.27;2.85;;;5.30;99.90;;;;;;4737388;30;20048;-83
2022/01/06 15:29:00;;;;;;;17.20;3.20;;;5.30;99.90;;;;;;4737527;30;20044;-82
2022/01/06 15:31:26;;;;;;;18.08;2.75;;;5.40;99.90;;;;;;4737657;30;20067;-82
2022/01/06 15:33:52;;;;;;;20.50;3.05;;;5.30;99.90;;;;;;4737386;30;20131;-82
2022/01/06 15:36:19;;;;;;;23.58;3.67;;;6.10;99.90;;;;;;4735943;30;20044;-74
2022/01/06 15:38:45;;;;;;;17.70;3.15;;;5.20;99.90;;;;;;4727089;30;20109;-72
2022/01/06 15:41:11;;;;;;;19.42;3.95;;;5.10;99.90;;;;;;4736115;30;20520;-72
2022/01/06 15:43:37;;;;;;;27.30;3.95;;;5.20;99.90;;;;;;4752518;30;20447;-78
2022/01/06 15:46:03;;;;;;;19.40;3.45;;;5.20;99.90;;;;;;4737194;30;20493;-79
2022/01/06 15:48:32;;;;;;;14.98;3.38;;;5.10;99.90;;;;;;4722277;30;20088;-79
2022/01/06 15:50:58;;;;;;;16.38;3.38;;;5.50;99.90;;;;;;4713789;30;20189;-83
2022/01/06 15:53:24;;;;;;;17.65;3.80;;;5.10;99.90;;;;;;4719836;30;20064;-83
2022/01/06 15:55:50;;;;;;;22.65;4.18;;;5.10;99.90;;;;;;4705769;30;20052;-83
2022/01/06 15:58:18;;;;;;;16.75;3.55;;;5.10;99.90;;;;;;4731547;30;20056;-83
2022/01/06 16:06:08;;;;;;;16.23;4.55;;;5.00;99.90;;;;;;4751278;30;20148;-79
2022/01/06 16:08:35;;;;;;;20.13;4.18;;;5.70;99.90;;;;;;4752725;30;20139;-78
2022/01/06 16:11:02;;;;;;;20.95;3.53;;;5.00;99.90;;;;;;4737063;30;20088;-78
2022/01/06 16:13:33;;;;;;;18.50;3.97;;;5.70;99.90;;;;;;4737178;30;20477;-78
2022/01/06 16:16:00;;;;;;;20.27;3.40;;;4.90;99.90;;;;;;4735949;30;20048;-83
2022/01/06 16:18:27;;;;;;;19.65;3.70;;;5.60;99.90;;;;;;4724295;30;20060;-83
2022/01/06 16:20:56;;;;;;;21.77;4.00;;;4.90;99.90;;;;;;4736801;30;20505;-78
2022/01/06 16:23:23;;;;;;;18.38;3.67;;;4.70;99.90;;;;;;4752627;30;20040;-78
2022/01/06 16:25:50;;;;;;;16.27;3.80;;;4.90;99.90;;;;;;4736474;30;20140;-79
2022/01/06 16:28:17;;;;;;;20.73;4.55;;;5.00;99.90;;;;;;4736464;30;20520;-78
2022/01/06 16:30:53;;;;;;;19.48;4.05;;;4.70;99.90;;;;;;4736835;30;20409;-78
2022/01/06 16:33:20;;;;;;;27.52;4.43;;;4.70;99.90;;;;;;4735633;30;20201;-78
2022/01/06 16:35:47;;;;;;;32.35;4.97;;;5.80;99.90;;;;;;4736225;30;20117;-78
2022/01/06 16:38:14;;;;;;;20.63;3.65;;;4.90;99.90;;;;;;4751359;30;20056;-78
2022/01/06 16:40:41;;;;;;;22.85;4.25;;;4.90;99.90;;;;;;4722464;30;20040;-78
2022/01/06 16:43:09;;;;;;;19.50;4.45;;;5.70;99.90;;;;;;4736420;30;20059;-78
2022/01/06 16:45:36;;;;;;;21.17;3.97;;;4.90;99.90;;;;;;4736342;30;20044;-82
2022/01/06 16:48:03;;;;;;;15.85;4.03;;;5.00;99.90;;;;;;4752388;30;20145;-82
2022/01/06 16:50:28;;;;;;;16.00;4.10;;;4.90;99.90;;;;;;4751287;30;20076;-78